sensor_id;sensor_type;location;lat;lon;timestamp;temperature;humidity
15834;DHT22;8017;50.812;4.934;2023-03-17T00:00:27;10.60;99.90
15834;DHT22;8017;50.812;4.934;2023-03-17T00:03:34;10.60;99.90
15834;DHT22;8017;50.812;4.934;2023-03-17T00:06:37;10.50;99.90
15834;DHT22;8017;50.812;4.934;2023-03-17T00:09:39;10.40;99.90
15834;DHT22;8017;50.812;4.934;2023-03-17T00:12:41;10.40;99.90
15834;DHT22;8017;50.812;4.934;2023-03-17T00:15:50;10.50;99.90
15834;DHT22;8017;50.812;4.934;2023-03-17T00:18:55;10.60;99.90
15834;DHT22;8017;50.812;4.934;2023-03-17T00:21:57;10.40;99.90
15834;DHT22;8017;50.812;4.934;2023-03-17T00:24:59;10.40;99.90
15834;DHT22;8017;50.812;4.934;2023-03-17T00:28:01;10.30;99.90
15834;DHT22;8017;50.812;4.934;2023-03-17T00:31:12;10.20;99.90
15834;DHT22;8017;50.812;4.934;2023-03-17T00:34:17;10.00;99.90
15834;DHT22;8017;50.812;4.934;2023-03-17T00:37:19;9.90;99.90
15834;DHT22;8017;50.812;4.934;2023-03-17T00:40:23;10.00;99.90
15834;DHT22;8017;50.812;4.934;2023-03-17T00:43:25;9.80;99.90
15834;DHT22;8017;50.812;4.934;2023-03-17T00:46:29;9.70;99.90
15834;DHT22;8017;50.812;4.934;2023-03-17T00:49:36;9.70;99.90
15834;DHT22;8017;50.812;4.934;2023-03-17T00:52:39;9.70;99.90
15834;DHT22;8017;50.812;4.934;2023-03-17T00:55:42;9.60;99.90
15834;DHT22;8017;50.812;4.934;2023-03-17T00:58:45;9.50;99.90
15834;DHT22;8017;50.812;4.934;2023-03-17T01:01:47;9.40;99.90
15834;DHT22;8017;50.812;4.934;2023-03-17T01:04:50;9.40;99.90
15834;DHT22;8017;50.812;4.934;2023-03-17T01:07:54;9.40;99.90
15834;DHT22;8017;50.812;4.934;2023-03-17T01:10:57;9.40;99.90
15834;DHT22;8017;50.812;4.934;2023-03-17T01:14:00;9.60;99.90
15834;DHT22;8017;50.812;4.934;2023-03-17T01:17:04;9.50;99.90
15834;DHT22;8017;50.812;4.934;2023-03-17T01:20:15;9.40;99.90
15834;DHT22;8017;50.812;4.934;2023-03-17T01:23:17;9.30;99.90
15834;DHT22;8017;50.812;4.934;2023-03-17T01:26:19;9.10;99.90
15834;DHT22;8017;50.812;4.934;2023-03-17T01:29:22;9.10;99.90
15834;DHT22;8017;50.812;4.934;2023-03-17T01:32:23;9.10;99.90
15834;DHT22;8017;50.812;4.934;2023-03-17T01:35:28;9.10;99.90
15834;DHT22;8017;50.812;4.934;2023-03-17T01:38:30;9.10;99.90
15834;DHT22;8017;50.812;4.934;2023-03-17T01:41:33;9.10;99.90
15834;DHT22;8017;50.812;4.934;2023-03-17T01:45:00;9.10;99.90
15834;DHT22;8017;50.812;4.934;2023-03-17T01:48:03;9.20;99.90
15834;DHT22;8017;50.812;4.934;2023-03-17T01:51:08;9.10;99.90
15834;DHT22;8017;50.812;4.934;2023-03-17T01:54:13;9.10;99.90
15834;DHT22;8017;50.812;4.934;2023-03-17T01:57:21;9.10;99.90
15834;DHT22;8017;50.812;4.934;2023-03-17T02:00:24;9.10;99.90
15834;DHT22;8017;50.812;4.934;2023-03-17T02:03:26;9.10;99.90
15834;DHT22;8017;50.812;4.934;2023-03-17T02:06:31;9.20;99.90
15834;DHT22;8017;50.812;4.934;2023-03-17T02:09:33;9.20;99.90
15834;DHT22;8017;50.812;4.934;2023-03-17T02:12:36;9.10;99.90
15834;DHT22;8017;50.812;4.934;2023-03-17T02:15:39;9.10;99.90
15834;DHT22;8017;50.812;4.934;2023-03-17T02:18:42;9.10;99.90
15834;DHT22;8017;50.812;4.934;2023-03-17T02:21:46;9.10;99.90
15834;DHT22;8017;50.812;4.934;2023-03-17T02:24:52;9.10;99.90
15834;DHT22;8017;50.812;4.934;2023-03-17T02:27:58;9.10;99.90
15834;DHT22;8017;50.812;4.934;2023-03-17T02:31:02;9.10;99.90
15834;DHT22;8017;50.812;4.934;2023-03-17T02:34:04;9.10;99.90
15834;DHT22;8017;50.812;4.934;2023-03-17T02:37:07;9.10;99.90
15834;DHT22;8017;50.812;4.934;2023-03-17T02:40:11;9.10;99.90
15834;DHT22;8017;50.812;4.934;2023-03-17T02:43:13;9.10;99.90
15834;DHT22;8017;50.812;4.934;2023-03-17T02:46:15;9.10;99.90
15834;DHT22;8017;50.812;4.934;2023-03-17T02:49:17;9.00;99.90
15834;DHT22;8017;50.812;4.934;2023-03-17T02:52:20;9.00;99.90
15834;DHT22;8017;50.812;4.934;2023-03-17T02:55:22;9.10;99.90
15834;DHT22;8017;50.812;4.934;2023-03-17T02:58:24;9.10;99.90
15834;DHT22;8017;50.812;4.934;2023-03-17T03:01:26;9.10;99.90
15834;DHT22;8017;50.812;4.934;2023-03-17T03:04:28;9.20;99.90
15834;DHT22;8017;50.812;4.934;2023-03-17T03:07:32;9.20;99.90
15834;DHT22;8017;50.812;4.934;2023-03-17T03:10:34;9.10;99.90
15834;DHT22;8017;50.812;4.934;2023-03-17T03:13:37;8.90;99.90
15834;DHT22;8017;50.812;4.934;2023-03-17T03:16:39;8.70;99.90
15834;DHT22;8017;50.812;4.934;2023-03-17T03:19:41;8.60;99.90
15834;DHT22;8017;50.812;4.934;2023-03-17T03:22:44;8.50;99.90
15834;DHT22;8017;50.812;4.934;2023-03-17T03:25:46;8.60;99.90
15834;DHT22;8017;50.812;4.934;2023-03-17T03:28:48;8.50;99.90
15834;DHT22;8017;50.812;4.934;2023-03-17T03:31:50;8.50;99.90
15834;DHT22;8017;50.812;4.934;2023-03-17T03:34:52;8.40;99.90
15834;DHT22;8017;50.812;4.934;2023-03-17T03:37:56;8.40;99.90
15834;DHT22;8017;50.812;4.934;2023-03-17T03:40:58;8.40;99.90
15834;DHT22;8017;50.812;4.934;2023-03-17T03:44:00;8.40;99.90
15834;DHT22;8017;50.812;4.934;2023-03-17T03:47:02;8.50;99.90
15834;DHT22;8017;50.812;4.934;2023-03-17T03:50:05;8.50;99.90
15834;DHT22;8017;50.812;4.934;2023-03-17T03:53:08;8.60;99.90
15834;DHT22;8017;50.812;4.934;2023-03-17T03:56:10;8.60;99.90
15834;DHT22;8017;50.812;4.934;2023-03-17T03:59:12;8.70;99.90
15834;DHT22;8017;50.812;4.934;2023-03-17T04:02:14;8.70;99.90
15834;DHT22;8017;50.812;4.934;2023-03-17T04:05:17;8.70;99.90
15834;DHT22;8017;50.812;4.934;2023-03-17T04:08:20;8.70;99.90
15834;DHT22;8017;50.812;4.934;2023-03-17T04:11:22;8.70;99.90
15834;DHT22;8017;50.812;4.934;2023-03-17T04:14:24;8.70;99.90
15834;DHT22;8017;50.812;4.934;2023-03-17T04:17:26;8.80;99.90
15834;DHT22;8017;50.812;4.934;2023-03-17T04:20:28;9.00;99.90
15834;DHT22;8017;50.812;4.934;2023-03-17T04:23:31;9.00;99.90
15834;DHT22;8017;50.812;4.934;2023-03-17T04:26:33;9.10;99.90
15834;DHT22;8017;50.812;4.934;2023-03-17T04:29:35;9.00;99.90
15834;DHT22;8017;50.812;4.934;2023-03-17T04:32:37;9.10;99.90
15834;DHT22;8017;50.812;4.934;2023-03-17T04:35:39;9.20;99.90
15834;DHT22;8017;50.812;4.934;2023-03-17T04:38:42;9.20;99.90
15834;DHT22;8017;50.812;4.934;2023-03-17T04:41:44;9.20;99.90
15834;DHT22;8017;50.812;4.934;2023-03-17T04:44:46;9.20;99.90
15834;DHT22;8017;50.812;4.934;2023-03-17T04:47:48;9.00;99.90
15834;DHT22;8017;50.812;4.934;2023-03-17T04:50:50;9.00;99.90
15834;DHT22;8017;50.812;4.934;2023-03-17T04:53:54;9.10;99.90
15834;DHT22;8017;50.812;4.934;2023-03-17T04:56:56;9.20;99.90
15834;DHT22;8017;50.812;4.934;2023-03-17T04:59:58;9.20;99.90
15834;DHT22;8017;50.812;4.934;2023-03-17T05:03:00;9.10;99.90
15834;DHT22;8017;50.812;4.934;2023-03-17T05:06:03;9.10;99.90
15834;DHT22;8017;50.812;4.934;2023-03-17T05:09:06;9.20;99.90
15834;DHT22;8017;50.812;4.934;2023-03-17T05:12:09;9.00;99.90
15834;DHT22;8017;50.812;4.934;2023-03-17T05:15:11;9.00;99.90
15834;DHT22;8017;50.812;4.934;2023-03-17T05:18:14;9.00;99.90
15834;DHT22;8017;50.812;4.934;2023-03-17T05:21:16;9.00;99.90
15834;DHT22;8017;50.812;4.934;2023-03-17T05:24:19;9.10;99.90
15834;DHT22;8017;50.812;4.934;2023-03-17T05:27:21;9.00;99.90
15834;DHT22;8017;50.812;4.934;2023-03-17T05:30:24;9.00;99.90
15834;DHT22;8017;50.812;4.934;2023-03-17T05:33:26;9.00;99.90
15834;DHT22;8017;50.812;4.934;2023-03-17T05:36:28;8.90;99.90
15834;DHT22;8017;50.812;4.934;2023-03-17T05:39:31;8.80;99.90
15834;DHT22;8017;50.812;4.934;2023-03-17T05:42:33;8.70;99.90
15834;DHT22;8017;50.812;4.934;2023-03-17T05:45:36;8.70;99.90
15834;DHT22;8017;50.812;4.934;2023-03-17T05:48:38;8.70;99.90
15834;DHT22;8017;50.812;4.934;2023-03-17T05:51:40;8.60;99.90
15834;DHT22;8017;50.812;4.934;2023-03-17T05:54:43;8.60;99.90
15834;DHT22;8017;50.812;4.934;2023-03-17T05:57:48;8.50;99.90
15834;DHT22;8017;50.812;4.934;2023-03-17T06:00:50;8.50;99.90
15834;DHT22;8017;50.812;4.934;2023-03-17T06:03:53;8.50;99.90
15834;DHT22;8017;50.812;4.934;2023-03-17T06:06:54;8.50;99.90
15834;DHT22;8017;50.812;4.934;2023-03-17T06:09:58;8.50;99.90
15834;DHT22;8017;50.812;4.934;2023-03-17T06:13:00;8.60;99.90
15834;DHT22;8017;50.812;4.934;2023-03-17T06:16:02;8.50;99.90
15834;DHT22;8017;50.812;4.934;2023-03-17T06:19:04;8.60;99.90
15834;DHT22;8017;50.812;4.934;2023-03-17T06:22:06;8.50;99.90
15834;DHT22;8017;50.812;4.934;2023-03-17T06:25:12;8.60;99.90
15834;DHT22;8017;50.812;4.934;2023-03-17T06:28:15;8.60;99.90
15834;DHT22;8017;50.812;4.934;2023-03-17T06:31:16;8.70;99.90
15834;DHT22;8017;50.812;4.934;2023-03-17T06:34:19;8.80;99.90
15834;DHT22;8017;50.812;4.934;2023-03-17T06:37:22;8.80;99.90
15834;DHT22;8017;50.812;4.934;2023-03-17T06:40:25;8.90;99.90
15834;DHT22;8017;50.812;4.934;2023-03-17T06:43:27;9.10;99.90
15834;DHT22;8017;50.812;4.934;2023-03-17T06:46:29;9.20;99.90
15834;DHT22;8017;50.812;4.934;2023-03-17T06:49:31;9.30;99.90
15834;DHT22;8017;50.812;4.934;2023-03-17T06:52:33;9.40;99.90
15834;DHT22;8017;50.812;4.934;2023-03-17T06:55:37;9.60;99.90
15834;DHT22;8017;50.812;4.934;2023-03-17T06:58:39;9.70;99.90
15834;DHT22;8017;50.812;4.934;2023-03-17T07:01:41;9.80;99.90
15834;DHT22;8017;50.812;4.934;2023-03-17T07:04:43;10.00;99.90
15834;DHT22;8017;50.812;4.934;2023-03-17T07:07:46;10.20;99.90
15834;DHT22;8017;50.812;4.934;2023-03-17T07:10:50;10.30;99.90
15834;DHT22;8017;50.812;4.934;2023-03-17T07:13:55;10.50;99.90
15834;DHT22;8017;50.812;4.934;2023-03-17T07:16:57;10.60;99.90
15834;DHT22;8017;50.812;4.934;2023-03-17T07:19:59;10.60;99.90
15834;DHT22;8017;50.812;4.934;2023-03-17T07:23:01;10.70;99.90
15834;DHT22;8017;50.812;4.934;2023-03-17T07:26:04;11.00;99.90
15834;DHT22;8017;50.812;4.934;2023-03-17T07:29:06;11.10;99.90
15834;DHT22;8017;50.812;4.934;2023-03-17T07:32:09;11.20;99.90
15834;DHT22;8017;50.812;4.934;2023-03-17T07:35:11;11.50;99.90
15834;DHT22;8017;50.812;4.934;2023-03-17T07:38:15;11.50;99.90
15834;DHT22;8017;50.812;4.934;2023-03-17T07:41:19;11.60;99.90
15834;DHT22;8017;50.812;4.934;2023-03-17T07:44:22;11.70;99.90
15834;DHT22;8017;50.812;4.934;2023-03-17T07:47:24;11.80;99.90
15834;DHT22;8017;50.812;4.934;2023-03-17T07:50:26;11.80;99.90
15834;DHT22;8017;50.812;4.934;2023-03-17T07:53:28;11.90;99.90
15834;DHT22;8017;50.812;4.934;2023-03-17T07:56:32;12.00;99.90
15834;DHT22;8017;50.812;4.934;2023-03-17T07:59:34;12.10;99.90
15834;DHT22;8017;50.812;4.934;2023-03-17T08:02:36;12.10;99.90
15834;DHT22;8017;50.812;4.934;2023-03-17T08:05:38;12.30;99.90
15834;DHT22;8017;50.812;4.934;2023-03-17T08:08:40;12.40;99.90
15834;DHT22;8017;50.812;4.934;2023-03-17T08:11:43;12.70;99.90
15834;DHT22;8017;50.812;4.934;2023-03-17T08:14:45;12.80;99.90
15834;DHT22;8017;50.812;4.934;2023-03-17T08:17:47;12.90;99.90
15834;DHT22;8017;50.812;4.934;2023-03-17T08:20:50;13.00;99.90
15834;DHT22;8017;50.812;4.934;2023-03-17T08:23:52;13.30;99.90
15834;DHT22;8017;50.812;4.934;2023-03-17T08:26:55;13.60;99.90
15834;DHT22;8017;50.812;4.934;2023-03-17T08:29:57;13.70;99.90
15834;DHT22;8017;50.812;4.934;2023-03-17T08:32:59;13.90;99.90
15834;DHT22;8017;50.812;4.934;2023-03-17T08:36:06;14.10;99.90
15834;DHT22;8017;50.812;4.934;2023-03-17T08:39:09;14.00;99.90
15834;DHT22;8017;50.812;4.934;2023-03-17T08:42:12;14.00;99.90
15834;DHT22;8017;50.812;4.934;2023-03-17T08:45:15;14.10;99.90
15834;DHT22;8017;50.812;4.934;2023-03-17T08:48:17;14.20;99.90
15834;DHT22;8017;50.812;4.934;2023-03-17T08:51:20;14.40;99.90
15834;DHT22;8017;50.812;4.934;2023-03-17T08:54:22;14.50;99.90
15834;DHT22;8017;50.812;4.934;2023-03-17T08:57:26;14.50;99.90
15834;DHT22;8017;50.812;4.934;2023-03-17T09:00:28;14.80;99.90
15834;DHT22;8017;50.812;4.934;2023-03-17T09:03:30;14.70;99.90
15834;DHT22;8017;50.812;4.934;2023-03-17T09:06:32;14.60;99.90
15834;DHT22;8017;50.812;4.934;2023-03-17T09:09:34;14.60;99.90
15834;DHT22;8017;50.812;4.934;2023-03-17T09:12:38;14.70;99.90
15834;DHT22;8017;50.812;4.934;2023-03-17T09:15:41;14.60;99.90
15834;DHT22;8017;50.812;4.934;2023-03-17T09:18:43;14.60;99.90
15834;DHT22;8017;50.812;4.934;2023-03-17T09:21:45;14.70;99.90
15834;DHT22;8017;50.812;4.934;2023-03-17T09:24:48;14.70;99.90
15834;DHT22;8017;50.812;4.934;2023-03-17T09:27:51;14.80;99.90
15834;DHT22;8017;50.812;4.934;2023-03-17T09:30:56;14.90;99.90
15834;DHT22;8017;50.812;4.934;2023-03-17T09:33:58;15.00;99.90
15834;DHT22;8017;50.812;4.934;2023-03-17T09:37:00;15.00;99.90
15834;DHT22;8017;50.812;4.934;2023-03-17T09:40:03;15.20;99.90
15834;DHT22;8017;50.812;4.934;2023-03-17T09:43:18;15.30;99.90
15834;DHT22;8017;50.812;4.934;2023-03-17T09:46:37;15.60;99.90
15834;DHT22;8017;50.812;4.934;2023-03-17T09:49:45;15.80;99.90
15834;DHT22;8017;50.812;4.934;2023-03-17T09:52:48;16.20;99.90
15834;DHT22;8017;50.812;4.934;2023-03-17T09:55:54;16.30;99.90
15834;DHT22;8017;50.812;4.934;2023-03-17T09:59:03;16.40;99.90
15834;DHT22;8017;50.812;4.934;2023-03-17T10:02:16;16.60;99.90
15834;DHT22;8017;50.812;4.934;2023-03-17T10:05:21;16.40;99.90
15834;DHT22;8017;50.812;4.934;2023-03-17T10:08:26;16.30;99.90
15834;DHT22;8017;50.812;4.934;2023-03-17T10:11:36;16.30;99.90
15834;DHT22;8017;50.812;4.934;2023-03-17T10:14:53;16.20;99.90
15834;DHT22;8017;50.812;4.934;2023-03-17T10:17:58;16.20;99.90
15834;DHT22;8017;50.812;4.934;2023-03-17T10:21:03;16.40;99.90
15834;DHT22;8017;50.812;4.934;2023-03-17T10:24:09;16.50;99.90
15834;DHT22;8017;50.812;4.934;2023-03-17T10:27:14;16.70;99.90
15834;DHT22;8017;50.812;4.934;2023-03-17T10:30:20;16.80;99.90
15834;DHT22;8017;50.812;4.934;2023-03-17T10:33:24;17.00;99.90
15834;DHT22;8017;50.812;4.934;2023-03-17T10:36:35;17.00;99.90
15834;DHT22;8017;50.812;4.934;2023-03-17T10:39:43;16.80;99.90
15834;DHT22;8017;50.812;4.934;2023-03-17T10:42:47;16.80;99.90
15834;DHT22;8017;50.812;4.934;2023-03-17T10:46:00;16.80;99.90
15834;DHT22;8017;50.812;4.934;2023-03-17T10:49:07;16.80;99.90
15834;DHT22;8017;50.812;4.934;2023-03-17T10:52:19;16.90;99.90
15834;DHT22;8017;50.812;4.934;2023-03-17T10:55:22;17.20;99.90
15834;DHT22;8017;50.812;4.934;2023-03-17T10:58:46;17.50;99.90
15834;DHT22;8017;50.812;4.934;2023-03-17T11:01:52;17.70;99.90
15834;DHT22;8017;50.812;4.934;2023-03-17T11:04:59;17.70;99.90
15834;DHT22;8017;50.812;4.934;2023-03-17T11:08:08;17.70;99.90
15834;DHT22;8017;50.812;4.934;2023-03-17T11:11:22;17.70;99.90
15834;DHT22;8017;50.812;4.934;2023-03-17T11:14:24;17.90;99.90
15834;DHT22;8017;50.812;4.934;2023-03-17T11:17:37;18.10;99.90
15834;DHT22;8017;50.812;4.934;2023-03-17T11:20:46;18.30;99.90
15834;DHT22;8017;50.812;4.934;2023-03-17T11:23:51;18.50;99.90
15834;DHT22;8017;50.812;4.934;2023-03-17T11:26:57;18.60;99.90
15834;DHT22;8017;50.812;4.934;2023-03-17T11:30:14;18.50;99.90
15834;DHT22;8017;50.812;4.934;2023-03-17T11:33:27;18.70;99.90
15834;DHT22;8017;50.812;4.934;2023-03-17T11:36:44;18.80;99.90
15834;DHT22;8017;50.812;4.934;2023-03-17T11:39:54;19.00;99.90
15834;DHT22;8017;50.812;4.934;2023-03-17T11:43:08;18.80;99.90
15834;DHT22;8017;50.812;4.934;2023-03-17T11:46:15;18.60;99.90
15834;DHT22;8017;50.812;4.934;2023-03-17T11:49:23;18.50;99.90
15834;DHT22;8017;50.812;4.934;2023-03-17T11:52:33;18.80;99.90
15834;DHT22;8017;50.812;4.934;2023-03-17T11:55:42;19.40;99.90
15834;DHT22;8017;50.812;4.934;2023-03-17T11:58:50;19.80;99.90
15834;DHT22;8017;50.812;4.934;2023-03-17T12:01:57;19.60;99.90
15834;DHT22;8017;50.812;4.934;2023-03-17T12:05:07;19.20;99.90
15834;DHT22;8017;50.812;4.934;2023-03-17T12:08:16;19.10;99.90
15834;DHT22;8017;50.812;4.934;2023-03-17T12:11:23;19.00;99.90
15834;DHT22;8017;50.812;4.934;2023-03-17T12:14:30;19.10;99.90
15834;DHT22;8017;50.812;4.934;2023-03-17T12:17:35;19.20;99.90
15834;DHT22;8017;50.812;4.934;2023-03-17T12:20:47;19.10;99.90
15834;DHT22;8017;50.812;4.934;2023-03-17T12:23:54;19.20;99.90
15834;DHT22;8017;50.812;4.934;2023-03-17T12:27:02;19.40;99.90
15834;DHT22;8017;50.812;4.934;2023-03-17T12:30:12;19.70;99.90
15834;DHT22;8017;50.812;4.934;2023-03-17T12:33:23;20.00;99.90
15834;DHT22;8017;50.812;4.934;2023-03-17T12:36:36;19.90;99.90
15834;DHT22;8017;50.812;4.934;2023-03-17T12:39:47;19.80;99.90
15834;DHT22;8017;50.812;4.934;2023-03-17T12:43:00;19.60;99.90
15834;DHT22;8017;50.812;4.934;2023-03-17T12:46:33;19.50;99.90
15834;DHT22;8017;50.812;4.934;2023-03-17T12:49:47;19.30;99.90
15834;DHT22;8017;50.812;4.934;2023-03-17T12:53:23;19.10;99.90
15834;DHT22;8017;50.812;4.934;2023-03-17T12:56:28;19.20;99.90
15834;DHT22;8017;50.812;4.934;2023-03-17T12:59:31;19.30;99.90
15834;DHT22;8017;50.812;4.934;2023-03-17T13:02:36;19.40;99.90
15834;DHT22;8017;50.812;4.934;2023-03-17T13:05:38;19.70;99.90
15834;DHT22;8017;50.812;4.934;2023-03-17T13:08:49;19.80;99.90
15834;DHT22;8017;50.812;4.934;2023-03-17T13:11:51;19.80;99.90
15834;DHT22;8017;50.812;4.934;2023-03-17T13:14:53;19.70;99.90
15834;DHT22;8017;50.812;4.934;2023-03-17T13:18:22;19.70;99.90
15834;DHT22;8017;50.812;4.934;2023-03-17T13:21:24;19.80;99.90
15834;DHT22;8017;50.812;4.934;2023-03-17T13:24:43;19.70;99.90
15834;DHT22;8017;50.812;4.934;2023-03-17T13:27:47;19.70;99.90
15834;DHT22;8017;50.812;4.934;2023-03-17T13:31:08;20.10;99.90
15834;DHT22;8017;50.812;4.934;2023-03-17T13:34:12;20.20;99.90
15834;DHT22;8017;50.812;4.934;2023-03-17T13:37:22;20.40;99.90
15834;DHT22;8017;50.812;4.934;2023-03-17T13:40:36;20.50;99.90
15834;DHT22;8017;50.812;4.934;2023-03-17T13:43:51;20.40;99.90
15834;DHT22;8017;50.812;4.934;2023-03-17T13:47:11;20.30;99.90
15834;DHT22;8017;50.812;4.934;2023-03-17T13:50:20;20.40;99.90
15834;DHT22;8017;50.812;4.934;2023-03-17T13:53:24;20.40;99.90
15834;DHT22;8017;50.812;4.934;2023-03-17T13:56:46;20.40;99.90
15834;DHT22;8017;50.812;4.934;2023-03-17T14:00:12;20.10;99.90
15834;DHT22;8017;50.812;4.934;2023-03-17T14:03:27;20.00;99.90
15834;DHT22;8017;50.812;4.934;2023-03-17T14:06:30;20.00;99.90
15834;DHT22;8017;50.812;4.934;2023-03-17T14:09:36;20.10;99.90
15834;DHT22;8017;50.812;4.934;2023-03-17T14:12:43;20.00;99.90
15834;DHT22;8017;50.812;4.934;2023-03-17T14:15:49;20.00;99.90
15834;DHT22;8017;50.812;4.934;2023-03-17T14:18:58;19.80;99.90
15834;DHT22;8017;50.812;4.934;2023-03-17T14:22:02;19.50;99.90
15834;DHT22;8017;50.812;4.934;2023-03-17T14:25:14;19.60;99.90
15834;DHT22;8017;50.812;4.934;2023-03-17T14:28:23;19.60;99.90
15834;DHT22;8017;50.812;4.934;2023-03-17T14:31:27;19.80;99.90
15834;DHT22;8017;50.812;4.934;2023-03-17T14:34:30;19.70;99.90
15834;DHT22;8017;50.812;4.934;2023-03-17T14:37:32;19.50;99.90
15834;DHT22;8017;50.812;4.934;2023-03-17T14:40:38;19.30;99.90
15834;DHT22;8017;50.812;4.934;2023-03-17T14:43:42;19.20;99.90
15834;DHT22;8017;50.812;4.934;2023-03-17T14:46:44;19.10;99.90
15834;DHT22;8017;50.812;4.934;2023-03-17T14:49:47;19.30;99.90
15834;DHT22;8017;50.812;4.934;2023-03-17T14:52:49;19.00;99.90
15834;DHT22;8017;50.812;4.934;2023-03-17T14:55:51;19.10;99.90
15834;DHT22;8017;50.812;4.934;2023-03-17T14:59:03;19.10;99.90
15834;DHT22;8017;50.812;4.934;2023-03-17T15:02:16;19.10;99.90
15834;DHT22;8017;50.812;4.934;2023-03-17T15:05:25;19.00;99.90
15834;DHT22;8017;50.812;4.934;2023-03-17T15:08:38;18.70;99.90
15834;DHT22;8017;50.812;4.934;2023-03-17T15:11:43;18.50;99.90
15834;DHT22;8017;50.812;4.934;2023-03-17T15:14:49;18.20;99.90
15834;DHT22;8017;50.812;4.934;2023-03-17T15:17:55;18.10;99.90
15834;DHT22;8017;50.812;4.934;2023-03-17T15:20:57;18.10;99.90
15834;DHT22;8017;50.812;4.934;2023-03-17T15:24:05;18.10;99.90
15834;DHT22;8017;50.812;4.934;2023-03-17T15:27:14;18.10;99.90
15834;DHT22;8017;50.812;4.934;2023-03-17T15:30:18;18.10;99.90
15834;DHT22;8017;50.812;4.934;2023-03-17T15:33:30;18.00;99.90
15834;DHT22;8017;50.812;4.934;2023-03-17T15:36:33;17.90;99.90
15834;DHT22;8017;50.812;4.934;2023-03-17T15:39:35;17.80;99.90
15834;DHT22;8017;50.812;4.934;2023-03-17T15:42:37;17.60;99.90
15834;DHT22;8017;50.812;4.934;2023-03-17T15:45:42;17.50;99.90
15834;DHT22;8017;50.812;4.934;2023-03-17T15:48:44;17.50;99.90
15834;DHT22;8017;50.812;4.934;2023-03-17T15:51:46;17.50;99.90
15834;DHT22;8017;50.812;4.934;2023-03-17T15:54:48;17.40;99.90
15834;DHT22;8017;50.812;4.934;2023-03-17T15:57:51;17.40;99.90
15834;DHT22;8017;50.812;4.934;2023-03-17T16:00:56;17.30;99.90
15834;DHT22;8017;50.812;4.934;2023-03-17T16:03:59;17.30;99.90
15834;DHT22;8017;50.812;4.934;2023-03-17T16:07:01;17.20;99.90
15834;DHT22;8017;50.812;4.934;2023-03-17T16:10:14;17.10;99.90
15834;DHT22;8017;50.812;4.934;2023-03-17T16:13:16;16.90;99.90
15834;DHT22;8017;50.812;4.934;2023-03-17T16:16:25;16.90;99.90
15834;DHT22;8017;50.812;4.934;2023-03-17T16:19:30;16.70;99.90
15834;DHT22;8017;50.812;4.934;2023-03-17T16:22:37;16.60;99.90
15834;DHT22;8017;50.812;4.934;2023-03-17T16:25:39;16.70;99.90
15834;DHT22;8017;50.812;4.934;2023-03-17T16:28:43;16.50;99.90
15834;DHT22;8017;50.812;4.934;2023-03-17T16:31:49;16.40;99.90
15834;DHT22;8017;50.812;4.934;2023-03-17T16:34:51;16.50;99.90
15834;DHT22;8017;50.812;4.934;2023-03-17T16:37:53;16.40;99.90
15834;DHT22;8017;50.812;4.934;2023-03-17T16:40:58;16.20;99.90
15834;DHT22;8017;50.812;4.934;2023-03-17T16:44:01;16.20;99.90
15834;DHT22;8017;50.812;4.934;2023-03-17T16:47:09;16.10;99.90
15834;DHT22;8017;50.812;4.934;2023-03-17T16:50:15;16.10;99.90
15834;DHT22;8017;50.812;4.934;2023-03-17T16:53:18;16.30;99.90
15834;DHT22;8017;50.812;4.934;2023-03-17T16:56:20;16.30;99.90
15834;DHT22;8017;50.812;4.934;2023-03-17T16:59:23;16.30;99.90
15834;DHT22;8017;50.812;4.934;2023-03-17T17:02:32;16.20;99.90
15834;DHT22;8017;50.812;4.934;2023-03-17T17:05:34;16.00;99.90
15834;DHT22;8017;50.812;4.934;2023-03-17T17:08:36;16.10;99.90
15834;DHT22;8017;50.812;4.934;2023-03-17T17:11:38;16.00;99.90
15834;DHT22;8017;50.812;4.934;2023-03-17T17:14:40;16.00;99.90
15834;DHT22;8017;50.812;4.934;2023-03-17T17:17:45;15.90;99.90
15834;DHT22;8017;50.812;4.934;2023-03-17T17:20:49;15.80;99.90
15834;DHT22;8017;50.812;4.934;2023-03-17T17:23:51;15.80;99.90
15834;DHT22;8017;50.812;4.934;2023-03-17T17:26:53;15.70;99.90
15834;DHT22;8017;50.812;4.934;2023-03-17T17:29:55;15.70;99.90
15834;DHT22;8017;50.812;4.934;2023-03-17T17:32:59;15.50;99.90
15834;DHT22;8017;50.812;4.934;2023-03-17T17:36:01;15.40;99.90
15834;DHT22;8017;50.812;4.934;2023-03-17T17:39:04;15.20;99.90
15834;DHT22;8017;50.812;4.934;2023-03-17T17:42:08;15.10;99.90
15834;DHT22;8017;50.812;4.934;2023-03-17T17:45:12;14.90;99.90
15834;DHT22;8017;50.812;4.934;2023-03-17T17:48:16;14.80;99.90
15834;DHT22;8017;50.812;4.934;2023-03-17T17:51:19;14.80;99.90
15834;DHT22;8017;50.812;4.934;2023-03-17T17:54:21;14.90;99.90
15834;DHT22;8017;50.812;4.934;2023-03-17T17:57:23;14.90;99.90
15834;DHT22;8017;50.812;4.934;2023-03-17T18:00:25;14.90;99.90
15834;DHT22;8017;50.812;4.934;2023-03-17T18:03:29;14.80;99.90
15834;DHT22;8017;50.812;4.934;2023-03-17T18:06:31;14.80;99.90
15834;DHT22;8017;50.812;4.934;2023-03-17T18:09:33;14.80;99.90
15834;DHT22;8017;50.812;4.934;2023-03-17T18:12:35;14.80;99.90
15834;DHT22;8017;50.812;4.934;2023-03-17T18:15:37;14.80;99.90
15834;DHT22;8017;50.812;4.934;2023-03-17T18:18:40;14.80;99.90
15834;DHT22;8017;50.812;4.934;2023-03-17T18:21:45;14.90;99.90
15834;DHT22;8017;50.812;4.934;2023-03-17T18:24:47;14.90;99.90
15834;DHT22;8017;50.812;4.934;2023-03-17T18:27:49;15.00;99.90
15834;DHT22;8017;50.812;4.934;2023-03-17T18:30:51;15.00;99.90
15834;DHT22;8017;50.812;4.934;2023-03-17T18:33:57;15.00;99.90
15834;DHT22;8017;50.812;4.934;2023-03-17T18:37:01;14.90;99.90
15834;DHT22;8017;50.812;4.934;2023-03-17T18:40:03;14.90;99.90
15834;DHT22;8017;50.812;4.934;2023-03-17T18:43:06;15.00;99.90
15834;DHT22;8017;50.812;4.934;2023-03-17T18:46:08;15.00;99.90
15834;DHT22;8017;50.812;4.934;2023-03-17T18:49:11;15.00;99.90
15834;DHT22;8017;50.812;4.934;2023-03-17T18:52:14;15.00;99.90
15834;DHT22;8017;50.812;4.934;2023-03-17T18:55:16;14.90;99.90
15834;DHT22;8017;50.812;4.934;2023-03-17T18:58:18;15.00;99.90
15834;DHT22;8017;50.812;4.934;2023-03-17T19:01:20;14.90;99.90
15834;DHT22;8017;50.812;4.934;2023-03-17T19:04:23;14.90;99.90
15834;DHT22;8017;50.812;4.934;2023-03-17T19:07:25;14.90;99.90
15834;DHT22;8017;50.812;4.934;2023-03-17T19:10:27;14.90;99.90
15834;DHT22;8017;50.812;4.934;2023-03-17T19:13:30;15.00;99.90
15834;DHT22;8017;50.812;4.934;2023-03-17T19:16:32;14.90;99.90
15834;DHT22;8017;50.812;4.934;2023-03-17T19:19:36;14.90;99.90
15834;DHT22;8017;50.812;4.934;2023-03-17T19:22:38;15.00;99.90
15834;DHT22;8017;50.812;4.934;2023-03-17T19:25:41;15.00;99.90
15834;DHT22;8017;50.812;4.934;2023-03-17T19:28:43;14.90;99.90
15834;DHT22;8017;50.812;4.934;2023-03-17T19:31:45;14.90;99.90
15834;DHT22;8017;50.812;4.934;2023-03-17T19:34:48;14.80;99.90
15834;DHT22;8017;50.812;4.934;2023-03-17T19:37:50;14.80;99.90
15834;DHT22;8017;50.812;4.934;2023-03-17T19:40:52;14.70;99.90
15834;DHT22;8017;50.812;4.934;2023-03-17T19:43:55;14.70;99.90
15834;DHT22;8017;50.812;4.934;2023-03-17T19:46:57;14.70;99.90
15834;DHT22;8017;50.812;4.934;2023-03-17T19:50:02;14.60;99.90
15834;DHT22;8017;50.812;4.934;2023-03-17T19:53:05;14.50;99.90